Time;durP1;ratioP1;P1;durP2;ratioP2;P2;SDS_P1;SDS_P2;PMS_P1;PMS_P2;Temp;Humidity;BMP_temperature;BMP_pressure;BME280_temperature;BME280_humidity;BME280_pressure;Samples;Min_cycle;Max_cycle;Signal;HPM_P1;HPM_P2
2022/03/18 00:00:38;;;;;;;9.57;6.50;;;6.50;95.70;;;;;;7346500;19;109420;-84
2022/03/18 00:03:07;;;;;;;12.90;7.00;;;6.50;95.70;;;;;;7340971;19;110029;-83
2022/03/18 00:05:35;;;;;;;15.77;6.77;;;6.40;95.70;;;;;;7340928;19;110278;-84
2022/03/18 00:08:04;;;;;;;10.93;6.67;;;6.40;95.80;;;;;;7337740;19;111641;-83
2022/03/18 00:10:31;;;;;;;17.33;8.67;;;6.40;95.80;;;;;;7340975;19;108937;-84
2022/03/18 00:12:59;;;;;;;14.00;7.70;;;6.30;95.70;;;;;;7340329;19;110074;-84
2022/03/18 00:15:27;;;;;;;19.80;8.87;;;6.20;95.70;;;;;;7337962;19;108704;-83
2022/03/18 00:17:54;;;;;;;14.10;7.07;;;6.20;95.80;;;;;;7338839;19;110844;-84
2022/03/18 00:20:22;;;;;;;16.07;8.93;;;6.20;95.90;;;;;;7340297;19;110475;-83
2022/03/18 00:22:50;;;;;;;25.50;11.40;;;6.10;95.90;;;;;;7344835;19;109191;-84
2022/03/18 00:25:18;;;;;;;18.93;9.60;;;6.00;96.10;;;;;;7337399;19;111259;-83
2022/03/18 00:27:46;;;;;;;21.20;9.73;;;6.00;96.00;;;;;;7339323;19;110420;-84
2022/03/18 00:30:16;;;;;;;18.40;10.67;;;6.00;96.10;;;;;;7337048;19;109386;-84
2022/03/18 00:32:44;;;;;;;21.33;9.97;;;5.90;96.20;;;;;;7333505;19;110500;-83
2022/03/18 00:35:32;;;;;;;19.87;9.17;;;5.80;96.20;;;;;;7334655;19;114158;-84
2022/03/18 00:38:02;;;;;;;16.30;7.43;;;5.80;96.40;;;;;;7335753;19;109748;-84
2022/03/18 00:40:30;;;;;;;16.60;8.77;;;5.70;96.40;;;;;;7337918;19;110695;-83
2022/03/18 00:42:57;;;;;;;18.57;8.10;;;5.70;96.40;;;;;;7343384;19;108473;-84
2022/03/18 00:45:24;;;;;;;15.73;7.57;;;5.70;96.40;;;;;;7338040;19;110221;-83
2022/03/18 00:53:23;;;;;;;13.03;7.13;;;5.10;98.40;;;;;;7338208;19;110375;-83
2022/03/18 00:55:50;;;;;;;13.10;7.40;;;5.10;98.00;;;;;;7335476;19;108938;-83
2022/03/18 00:58:17;;;;;;;18.07;7.93;;;5.20;97.80;;;;;;7337920;19;109498;-83
2022/03/18 01:00:45;;;;;;;12.07;7.10;;;5.20;97.60;;;;;;7333328;19;109652;-83
2022/03/18 01:03:13;;;;;;;13.17;7.33;;;5.30;97.50;;;;;;7338896;19;108422;-84
2022/03/18 01:05:41;;;;;;;18.70;8.53;;;5.30;97.40;;;;;;7344148;19;109378;-84
2022/03/18 01:08:08;;;;;;;18.13;8.93;;;5.30;97.20;;;;;;7336912;19;109364;-83
2022/03/18 01:10:36;;;;;;;27.47;12.10;;;5.30;97.20;;;;;;7337835;19;108403;-83
2022/03/18 01:13:04;;;;;;;18.50;8.23;;;5.20;98.30;;;;;;7335428;19;110657;-84
2022/03/18 01:15:31;;;;;;;12.57;7.70;;;5.10;97.70;;;;;;7333771;19;111844;-84
2022/03/18 01:17:58;;;;;;;15.80;7.53;;;5.20;97.40;;;;;;7334458;19;109447;-83
2022/03/18 01:20:25;;;;;;;13.47;7.43;;;5.10;97.20;;;;;;7335455;19;110187;-83
2022/03/18 01:22:52;;;;;;;22.83;8.73;;;5.00;97.50;;;;;;7337738;19;109332;-83
2022/03/18 01:25:19;;;;;;;21.50;8.63;;;4.90;97.90;;;;;;7337385;19;109786;-83
2022/03/18 01:27:47;;;;;;;16.40;7.43;;;4.80;97.70;;;;;;7342161;19;110517;-83
2022/03/18 01:30:14;;;;;;;16.30;8.27;;;4.80;97.70;;;;;;7336339;19;109820;-83
2022/03/18 01:32:42;;;;;;;17.07;7.63;;;4.80;97.60;;;;;;7335063;19;110077;-83
2022/03/18 01:35:10;;;;;;;17.30;7.33;;;4.80;97.60;;;;;;7334164;19;110492;-84
2022/03/18 01:37:37;;;;;;;13.17;6.90;;;4.80;98.10;;;;;;7334534;19;109386;-83
2022/03/18 01:40:05;;;;;;;14.10;6.70;;;4.70;98.10;;;;;;7335063;19;110960;-83
2022/03/18 01:42:32;;;;;;;18.63;7.37;;;4.70;98.10;;;;;;7335723;19;108480;-83
2022/03/18 01:44:59;;;;;;;19.57;6.83;;;4.80;98.10;;;;;;7335379;19;108850;-83
2022/03/18 01:47:26;;;;;;;11.70;6.33;;;4.80;98.30;;;;;;7338916;19;111062;-83
2022/03/18 01:49:53;;;;;;;14.80;7.30;;;4.70;97.80;;;;;;7342698;19;108546;-84
2022/03/18 01:52:21;;;;;;;18.10;6.60;;;4.60;98.00;;;;;;7345013;19;110691;-84
2022/03/18 01:54:49;;;;;;;18.07;6.27;;;4.60;98.20;;;;;;7345124;19;108322;-83
2022/03/18 01:57:23;;;;;;;17.10;6.77;;;4.60;98.00;;;;;;7343467;19;109784;-84
2022/03/18 01:59:51;;;;;;;10.33;6.70;;;4.60;98.00;;;;;;7342459;19;109132;-83
2022/03/18 02:02:19;;;;;;;13.13;6.40;;;4.60;97.90;;;;;;7344869;19;108910;-83
2022/03/18 02:04:46;;;;;;;12.57;6.70;;;4.50;98.10;;;;;;7343390;19;108804;-83
2022/03/18 02:07:14;;;;;;;13.10;6.83;;;4.50;98.00;;;;;;7342355;19;110764;-83
2022/03/18 02:09:42;;;;;;;14.20;6.47;;;4.40;97.90;;;;;;7344677;19;108193;-83
2022/03/18 02:12:10;;;;;;;15.43;6.43;;;4.40;98.00;;;;;;7349500;19;108660;-83
2022/03/18 02:14:43;;;;;;;16.83;6.87;;;4.40;98.00;;;;;;7340740;19;109690;-83
2022/03/18 02:17:11;;;;;;;12.60;6.90;;;4.40;98.30;;;;;;7343265;19;109551;-83
2022/03/18 02:19:40;;;;;;;16.80;7.17;;;4.20;99.10;;;;;;7343508;19;110664;-83
2022/03/18 02:22:24;;;;;;;13.40;6.67;;;4.20;98.60;;;;;;7342399;19;110561;-83
2022/03/18 02:24:54;;;;;;;17.27;8.07;;;4.20;98.60;;;;;;7341682;19;111061;-83
2022/03/18 02:27:21;;;;;;;9.77;6.67;;;4.20;98.70;;;;;;7340886;19;109225;-83
2022/03/18 02:29:48;;;;;;;13.27;6.50;;;4.20;98.70;;;;;;7343222;19;108811;-83
2022/03/18 02:32:19;;;;;;;17.23;6.87;;;4.20;98.50;;;;;;7348364;19;109761;-83
2022/03/18 02:34:46;;;;;;;11.10;6.57;;;4.10;98.80;;;;;;7342212;19;109310;-83
2022/03/18 02:37:13;;;;;;;14.67;7.47;;;4.10;99.80;;;;;;7340680;19;108951;-84
2022/03/18 02:39:40;;;;;;;13.17;6.50;;;4.00;99.40;;;;;;7342431;19;110188;-83
2022/03/18 02:42:08;;;;;;;16.07;7.07;;;4.00;99.10;;;;;;7340500;19;108404;-83
2022/03/18 02:44:35;;;;;;;15.13;7.13;;;4.00;99.20;;;;;;7343346;19;110040;-83
2022/03/18 02:47:05;;;;;;;16.50;6.60;;;3.90;99.90;;;;;;7342117;19;110817;-83
2022/03/18 02:49:32;;;;;;;14.67;6.70;;;3.70;99.90;;;;;;7342264;19;108335;-83
2022/03/18 02:52:00;;;;;;;14.43;6.63;;;3.70;99.90;;;;;;7339980;19;109476;-83
2022/03/18 02:54:27;;;;;;;22.43;7.77;;;3.80;99.90;;;;;;7347219;19;109779;-83
2022/03/18 02:56:54;;;;;;;16.13;8.37;;;3.80;99.90;;;;;;7337814;19;109425;-84
2022/03/18 02:59:21;;;;;;;15.47;8.20;;;3.70;99.90;;;;;;7340497;19;110257;-83
2022/03/18 03:01:48;;;;;;;16.37;6.73;;;3.60;99.90;;;;;;7339666;19;110201;-83
2022/03/18 03:04:17;;;;;;;17.40;7.90;;;3.60;99.90;;;;;;7340701;19;112511;-83
2022/03/18 03:09:30;;;;;;;12.53;6.67;;;3.60;99.90;;;;;;7341318;19;108172;-83
2022/03/18 03:11:57;;;;;;;14.63;6.60;;;3.50;99.90;;;;;;7341499;19;110181;-83
2022/03/18 03:14:24;;;;;;;17.83;7.13;;;3.60;99.90;;;;;;7339693;19;110193;-83
2022/03/18 03:16:52;;;;;;;17.50;8.10;;;3.60;99.90;;;;;;7345880;19;108270;-83
2022/03/18 03:19:19;;;;;;;16.83;7.20;;;3.60;99.90;;;;;;7340951;19;109153;-83
2022/03/18 03:21:46;;;;;;;15.03;7.00;;;3.60;99.90;;;;;;7339791;19;108366;-83
2022/03/18 03:24:14;;;;;;;20.17;7.83;;;3.60;99.90;;;;;;7339845;19;109409;-83
2022/03/18 03:26:41;;;;;;;22.50;8.67;;;3.60;99.90;;;;;;7338810;19;110231;-83
2022/03/18 03:29:08;;;;;;;20.23;8.70;;;3.70;99.90;;;;;;7340699;19;108373;-83
2022/03/18 03:31:35;;;;;;;14.40;7.97;;;3.70;99.90;;;;;;7341058;19;109826;-83
2022/03/18 03:34:02;;;;;;;21.47;8.53;;;3.70;99.90;;;;;;7340912;19;110241;-83
2022/03/18 03:36:30;;;;;;;21.00;8.67;;;3.70;99.90;;;;;;7340364;19;109338;-83
2022/03/18 03:38:57;;;;;;;22.03;9.47;;;3.70;99.90;;;;;;7342442;19;109682;-84
2022/03/18 03:41:24;;;;;;;16.23;8.27;;;3.70;99.90;;;;;;7341559;19;108662;-83
2022/03/18 03:43:51;;;;;;;20.43;9.17;;;3.60;99.90;;;;;;7340920;19;109480;-83
2022/03/18 03:46:18;;;;;;;23.80;8.63;;;3.60;99.90;;;;;;7337608;19;110137;-83
2022/03/18 03:48:45;;;;;;;13.50;7.07;;;3.50;99.90;;;;;;7341313;19;108796;-83
2022/03/18 03:51:12;;;;;;;17.27;7.83;;;3.60;99.90;;;;;;7339871;19;108807;-83
2022/03/18 03:53:39;;;;;;;15.90;8.80;;;3.60;99.90;;;;;;7337812;19;110537;-83
2022/03/18 03:56:06;;;;;;;17.93;8.17;;;3.60;99.90;;;;;;7339885;19;109011;-83
2022/03/18 03:58:33;;;;;;;16.03;8.00;;;3.60;99.90;;;;;;7338432;19;109859;-83
2022/03/18 04:01:01;;;;;;;19.63;7.47;;;3.60;99.90;;;;;;7344942;19;112293;-83
2022/03/18 04:03:28;;;;;;;16.87;8.20;;;3.60;99.90;;;;;;7340647;19;109847;-83
2022/03/18 04:05:55;;;;;;;18.53;9.33;;;3.60;99.90;;;;;;7340481;19;110478;-84
2022/03/18 04:08:22;;;;;;;17.83;7.90;;;3.50;99.90;;;;;;7340316;19;111845;-83
2022/03/18 04:10:49;;;;;;;17.23;7.90;;;3.50;99.90;;;;;;7339345;19;109814;-83
2022/03/18 04:13:17;;;;;;;17.40;7.67;;;3.50;99.90;;;;;;7338430;19;109158;-83
2022/03/18 04:15:44;;;;;;;16.27;7.57;;;3.40;99.90;;;;;;7333500;19;108859;-83
2022/03/18 04:18:12;;;;;;;18.87;8.97;;;3.40;99.90;;;;;;7338678;19;108905;-83
2022/03/18 04:20:39;;;;;;;26.80;10.10;;;3.40;99.90;;;;;;7338394;19;109620;-84
2022/03/18 04:23:06;;;;;;;27.07;8.50;;;3.30;99.90;;;;;;7340974;19;110508;-83
2022/03/18 04:25:33;;;;;;;18.03;7.90;;;3.10;99.90;;;;;;7340573;19;110365;-84
2022/03/18 04:28:01;;;;;;;22.07;7.93;;;3.10;99.90;;;;;;7338667;19;108491;-83
2022/03/18 04:30:28;;;;;;;23.67;8.57;;;3.00;99.90;;;;;;7340681;19;109590;-83
2022/03/18 04:32:55;;;;;;;19.33;8.00;;;3.00;99.90;;;;;;7336944;19;110306;-83
2022/03/18 04:35:23;;;;;;;21.77;8.03;;;3.10;99.90;;;;;;7339439;19;110690;-83
2022/03/18 04:37:50;;;;;;;20.97;7.57;;;3.10;99.90;;;;;;7335981;19;109613;-84
2022/03/18 04:40:17;;;;;;;17.90;7.80;;;3.20;99.90;;;;;;7337755;19;109579;-83
2022/03/18 04:42:45;;;;;;;16.70;7.67;;;3.20;99.90;;;;;;7344433;19;108595;-83
2022/03/18 04:45:13;;;;;;;20.90;7.67;;;3.20;99.90;;;;;;7338248;19;110191;-83
2022/03/18 04:47:40;;;;;;;17.40;7.50;;;3.20;99.90;;;;;;7338058;19;108936;-83
2022/03/18 04:50:08;;;;;;;16.50;7.47;;;3.20;99.90;;;;;;7337688;19;112710;-84
2022/03/18 04:52:36;;;;;;;19.90;7.10;;;3.20;99.90;;;;;;7339763;19;109737;-84
2022/03/18 04:55:04;;;;;;;12.33;7.07;;;3.20;99.90;;;;;;7336093;19;109539;-84
2022/03/18 04:57:31;;;;;;;19.37;7.17;;;3.20;99.90;;;;;;7338147;19;112929;-83
2022/03/18 04:59:59;;;;;;;17.97;8.93;;;3.20;99.90;;;;;;7339337;19;110061;-83
2022/03/18 05:02:26;;;;;;;19.93;8.00;;;3.20;99.90;;;;;;7337376;19;108696;-83
2022/03/18 05:04:54;;;;;;;19.70;7.73;;;3.20;99.90;;;;;;7342297;19;109712;-83
2022/03/18 05:07:22;;;;;;;14.73;7.37;;;3.10;99.90;;;;;;7336126;19;110375;-84
2022/03/18 05:09:49;;;;;;;20.63;8.47;;;3.10;99.90;;;;;;7339205;19;113042;-82
2022/03/18 05:12:17;;;;;;;15.50;7.67;;;3.10;99.90;;;;;;7339200;19;110121;-83
2022/03/18 05:14:51;;;;;;;17.70;7.63;;;3.10;99.90;;;;;;7336000;19;108839;-84
2022/03/18 05:17:18;;;;;;;19.73;7.87;;;3.00;99.90;;;;;;7337941;19;109062;-83
2022/03/18 05:19:45;;;;;;;15.37;7.63;;;3.00;99.90;;;;;;7335595;19;110307;-83
2022/03/18 05:22:12;;;;;;;20.03;8.63;;;3.00;99.90;;;;;;7336591;19;110193;-83
2022/03/18 05:24:39;;;;;;;19.27;7.67;;;3.00;99.90;;;;;;7337519;19;109361;-84
2022/03/18 05:27:07;;;;;;;18.77;7.80;;;3.00;99.90;;;;;;7350549;19;110065;-83
2022/03/18 05:29:34;;;;;;;17.00;7.20;;;3.00;99.90;;;;;;7344308;19;112099;-84
2022/03/18 05:32:02;;;;;;;19.97;7.83;;;3.00;99.90;;;;;;7341324;19;109160;-82
2022/03/18 05:34:29;;;;;;;17.37;7.27;;;3.00;99.90;;;;;;7345671;19;108361;-84
2022/03/18 05:36:56;;;;;;;17.70;8.23;;;3.00;99.90;;;;;;7344913;19;109720;-83
2022/03/18 05:39:24;;;;;;;19.23;7.83;;;3.00;99.90;;;;;;7343001;19;111880;-83
2022/03/18 05:41:51;;;;;;;17.17;8.03;;;3.00;99.90;;;;;;7344996;19;108795;-83
2022/03/18 05:44:18;;;;;;;20.10;9.27;;;2.90;99.90;;;;;;7345307;19;109950;-83
2022/03/18 05:46:45;;;;;;;18.63;7.20;;;2.90;99.90;;;;;;7341467;19;110448;-83
2022/03/18 05:49:13;;;;;;;19.20;7.90;;;2.80;99.90;;;;;;7348558;19;108945;-82
2022/03/18 05:51:40;;;;;;;25.27;7.70;;;2.80;99.90;;;;;;7343807;19;112401;-83
2022/03/18 05:54:07;;;;;;;19.47;7.97;;;2.90;99.90;;;;;;7342882;19;109573;-83
2022/03/18 05:56:54;;;;;;;27.27;7.37;;;2.90;99.90;;;;;;7343342;19;109470;-84
2022/03/18 05:59:28;;;;;;;16.73;7.20;;;2.90;99.90;;;;;;7341467;19;109119;-83
2022/03/18 06:01:58;;;;;;;19.53;7.97;;;2.80;99.90;;;;;;7343006;19;109255;-83
2022/03/18 06:04:27;;;;;;;27.07;9.63;;;2.90;99.90;;;;;;7342130;19;110744;-83
2022/03/18 06:06:55;;;;;;;26.43;7.97;;;2.90;99.90;;;;;;7342048;19;109480;-83
2022/03/18 06:12:08;;;;;;;20.03;7.83;;;2.80;99.90;;;;;;7347462;19;111009;-84
2022/03/18 06:14:36;;;;;;;17.40;7.80;;;2.80;99.90;;;;;;7337659;19;109428;-85
2022/03/18 06:17:05;;;;;;;19.47;8.07;;;2.80;99.90;;;;;;7341678;19;109987;-84
2022/03/18 06:19:33;;;;;;;31.23;8.33;;;2.90;99.90;;;;;;7338103;19;111471;-84
2022/03/18 06:22:01;;;;;;;22.47;8.53;;;2.90;99.90;;;;;;7341022;19;108297;-84
2022/03/18 06:24:29;;;;;;;24.50;8.97;;;2.90;99.90;;;;;;7341445;19;109752;-84
2022/03/18 06:26:57;;;;;;;17.60;7.83;;;2.90;99.90;;;;;;7341242;19;109762;-83
2022/03/18 06:29:24;;;;;;;15.83;7.97;;;2.90;99.90;;;;;;7341755;19;109025;-84
2022/03/18 06:31:51;;;;;;;15.27;8.57;;;3.00;99.90;;;;;;7339329;19;110935;-83
2022/03/18 06:34:20;;;;;;;14.40;7.50;;;3.10;99.90;;;;;;7346217;19;112613;-83
2022/03/18 06:36:52;;;;;;;17.77;7.97;;;3.10;99.90;;;;;;7338278;19;109322;-84
2022/03/18 06:39:22;;;;;;;21.77;9.27;;;3.20;99.90;;;;;;7338145;19;110909;-85
2022/03/18 06:41:49;;;;;;;22.60;8.90;;;3.20;99.90;;;;;;7343173;19;108788;-84
2022/03/18 06:44:16;;;;;;;17.50;8.57;;;3.20;99.90;;;;;;7336197;19;109741;-84
2022/03/18 06:46:44;;;;;;;23.37;10.67;;;3.30;99.90;;;;;;7335552;19;110327;-84
2022/03/18 06:49:13;;;;;;;21.10;9.90;;;3.30;99.90;;;;;;7338100;19;110673;-85
2022/03/18 06:51:40;;;;;;;21.57;9.70;;;3.30;99.90;;;;;;7338319;19;109950;-84
2022/03/18 06:54:08;;;;;;;19.47;10.13;;;3.40;99.90;;;;;;7345408;19;110237;-83
2022/03/18 06:56:38;;;;;;;21.97;9.97;;;3.50;99.90;;;;;;7339359;19;111451;-84
2022/03/18 06:59:05;;;;;;;18.13;8.90;;;3.60;99.90;;;;;;7337122;19;110316;-84
2022/03/18 07:01:33;;;;;;;18.40;9.90;;;3.70;99.90;;;;;;7337296;19;110841;-85
2022/03/18 07:04:00;;;;;;;23.53;10.63;;;3.80;99.90;;;;;;7341245;19;108991;-85
2022/03/18 07:06:27;;;;;;;22.53;9.83;;;3.90;99.90;;;;;;7336842;19;111233;-85
2022/03/18 07:08:55;;;;;;;25.87;10.17;;;4.00;99.90;;;;;;7341701;19;111416;-84
2022/03/18 07:11:25;;;;;;;24.50;11.00;;;4.10;99.90;;;;;;7336500;19;111124;-85
2022/03/18 07:13:52;;;;;;;23.77;9.73;;;4.30;99.90;;;;;;7336145;19;110217;-84
2022/03/18 07:19:05;;;;;;;20.60;9.40;;;4.50;99.90;;;;;;7338072;19;110101;-83
2022/03/18 07:21:33;;;;;;;20.73;9.70;;;4.60;99.90;;;;;;7340764;19;113130;-85
2022/03/18 07:24:00;;;;;;;16.90;9.30;;;4.70;99.90;;;;;;7342143;19;109916;-86
2022/03/18 07:26:28;;;;;;;21.80;10.10;;;4.90;99.90;;;;;;7342195;19;110281;-86
2022/03/18 07:28:56;;;;;;;28.50;9.60;;;5.00;99.90;;;;;;7340260;19;110216;-85
2022/03/18 07:31:23;;;;;;;17.13;8.63;;;5.10;99.90;;;;;;7338833;19;109891;-86
2022/03/18 07:33:52;;;;;;;16.57;8.73;;;5.20;99.90;;;;;;7340269;19;110367;-85
2022/03/18 07:36:20;;;;;;;20.23;9.33;;;5.30;99.90;;;;;;7339154;19;108279;-86
2022/03/18 07:38:47;;;;;;;22.30;8.60;;;5.40;99.90;;;;;;7342240;19;109733;-85
2022/03/18 07:41:17;;;;;;;24.17;8.27;;;5.50;99.90;;;;;;7340036;19;108451;-85
2022/03/18 07:43:44;;;;;;;17.97;7.50;;;5.60;99.90;;;;;;7340965;19;110344;-84
2022/03/18 07:46:11;;;;;;;24.07;7.13;;;5.70;99.90;;;;;;7336068;19;110318;-85
2022/03/18 07:48:41;;;;;;;20.00;7.13;;;5.90;99.90;;;;;;7342728;19;109716;-84
2022/03/18 07:51:09;;;;;;;18.80;8.63;;;6.10;99.90;;;;;;7339100;19;111076;-84
2022/03/18 07:53:36;;;;;;;22.20;7.93;;;6.20;99.90;;;;;;7341196;19;110328;-85
2022/03/18 07:56:04;;;;;;;22.93;8.03;;;6.30;99.90;;;;;;7339449;19;108834;-85
2022/03/18 07:58:31;;;;;;;22.63;7.23;;;6.40;99.90;;;;;;7336827;19;110092;-85
2022/03/18 08:00:58;;;;;;;17.57;6.97;;;6.50;99.90;;;;;;7341277;19;112275;-85
2022/03/18 08:03:25;;;;;;;16.97;6.90;;;6.60;99.90;;;;;;7339873;19;110237;-85
2022/03/18 08:05:53;;;;;;;16.50;7.13;;;6.70;99.90;;;;;;7339572;19;110380;-86
2022/03/18 08:08:20;;;;;;;28.33;7.07;;;7.00;99.90;;;;;;7337857;19;108424;-87
2022/03/18 08:10:47;;;;;;;20.77;6.17;;;7.20;99.90;;;;;;7340148;19;109826;-85
2022/03/18 08:13:15;;;;;;;22.73;6.70;;;7.30;99.90;;;;;;7338937;19;110017;-85
2022/03/18 08:15:44;;;;;;;17.50;6.23;;;7.50;99.90;;;;;;7337565;19;112042;-85
2022/03/18 08:18:15;;;;;;;17.10;6.03;;;7.70;99.90;;;;;;7339634;19;110327;-85
2022/03/18 08:20:43;;;;;;;19.38;6.30;;;7.90;99.90;;;;;;7337333;19;110333;-85
2022/03/18 08:23:14;;;;;;;19.05;5.80;;;8.00;99.90;;;;;;7343184;19;111289;-85
2022/03/18 08:25:42;;;;;;;26.05;6.07;;;8.20;99.90;;;;;;7340219;19;111086;-86
2022/03/18 08:28:09;;;;;;;24.00;5.80;;;8.30;99.90;;;;;;7338208;19;110141;-87
2022/03/18 08:30:38;;;;;;;29.70;5.40;;;8.40;99.90;;;;;;7337348;19;109461;-89
2022/03/18 08:33:05;;;;;;;24.98;5.15;;;8.50;99.90;;;;;;7340296;19;111829;-89
2022/03/18 08:35:36;;;;;;;20.88;5.22;;;8.70;99.90;;;;;;7339062;19;108448;-87
2022/03/18 08:38:07;;;;;;;25.75;5.50;;;8.80;99.90;;;;;;7340904;19;109500;-87
2022/03/18 08:40:36;;;;;;;15.88;4.28;;;9.00;99.90;;;;;;7338226;19;110524;-88
2022/03/18 08:43:05;;;;;;;11.05;4.70;;;9.10;99.90;;;;;;7338770;19;109155;-86
2022/03/18 08:45:34;;;;;;;13.25;4.80;;;9.20;99.90;;;;;;7343223;19;108481;-88
2022/03/18 08:48:02;;;;;;;13.75;5.75;;;9.30;99.90;;;;;;7340286;19;108970;-87
2022/03/18 08:50:29;;;;;;;7.65;4.43;;;9.30;99.90;;;;;;7342098;19;109320;-88
2022/03/18 08:52:56;;;;;;;15.65;4.68;;;9.40;99.90;;;;;;7341474;19;110141;-88
2022/03/18 08:55:24;;;;;;;12.68;4.68;;;9.60;99.90;;;;;;7340420;19;108303;-88
2022/03/18 08:57:51;;;;;;;12.45;4.40;;;9.70;99.90;;;;;;7340815;19;109522;-88
2022/03/18 09:00:19;;;;;;;18.48;4.68;;;9.80;99.90;;;;;;7339404;19;110349;-91
2022/03/18 09:02:47;;;;;;;14.70;4.80;;;9.90;99.90;;;;;;7342270;19;108434;-93
2022/03/18 09:05:15;;;;;;;20.35;4.60;;;9.90;99.90;;;;;;7349900;19;109754;-91
2022/03/18 09:07:42;;;;;;;14.80;4.13;;;9.90;99.90;;;;;;7345033;19;110030;-91
2022/03/18 09:10:12;;;;;;;13.55;4.35;;;10.00;99.60;;;;;;7344487;19;109910;-91
2022/03/18 09:12:52;;;;;;;15.95;6.35;;;10.00;99.60;;;;;;7344366;19;111327;-91
2022/03/18 09:15:19;;;;;;;9.27;4.53;;;10.00;98.80;;;;;;7344696;19;108468;-90
2022/03/18 09:17:46;;;;;;;12.30;6.05;;;10.10;99.20;;;;;;7343711;19;109928;-93
2022/03/18 09:20:14;;;;;;;18.63;3.92;;;10.20;98.90;;;;;;7343625;19;112430;-93
2022/03/18 09:22:41;;;;;;;12.93;4.05;;;10.30;98.50;;;;;;7346949;19;108049;-94
2022/03/18 09:25:09;;;;;;;12.88;3.60;;;10.40;98.20;;;;;;7345062;19;110072;-92
2022/03/18 09:27:36;;;;;;;11.90;3.85;;;10.50;96.80;;;;;;7348621;19;110677;-94
2022/03/18 09:30:09;;;;;;;21.98;3.92;;;10.60;98.10;;;;;;7344830;19;108762;-91
2022/03/18 09:32:36;;;;;;;25.15;10.45;;;10.80;98.10;;;;;;7346039;19;110110;-93
2022/03/18 09:35:04;;;;;;;20.58;10.00;;;10.90;97.80;;;;;;7341874;19;110110;-94
2022/03/18 09:37:31;;;;;;;13.32;5.20;;;10.90;96.70;;;;;;7342624;19;112852;-94
2022/03/18 09:40:01;;;;;;;10.48;3.58;;;10.90;96.00;;;;;;7343838;19;112253;-92
2022/03/18 09:43:01;;;;;;;7.22;3.40;;;11.00;96.20;;;;;;7345656;19;110655;-93
2022/03/18 09:45:32;;;;;;;11.90;3.13;;;11.10;94.70;;;;;;7344212;19;111944;-92
2022/03/18 09:48:00;;;;;;;7.22;3.00;;;11.10;95.60;;;;;;7346645;19;110524;-94
2022/03/18 09:50:29;;;;;;;9.70;4.40;;;11.20;95.60;;;;;;7350545;19;108515;-89
2022/03/18 09:52:56;;;;;;;10.10;3.38;;;11.20;95.00;;;;;;7343400;19;112667;-92
2022/03/18 09:55:24;;;;;;;8.63;3.17;;;11.20;95.00;;;;;;7345017;19;111063;-92
2022/03/18 09:57:52;;;;;;;10.00;3.45;;;11.30;95.10;;;;;;7345739;19;108728;-93
2022/03/18 10:00:19;;;;;;;10.20;3.92;;;11.40;95.50;;;;;;7342344;19;109346;-93
2022/03/18 10:03:05;;;;;;;10.65;4.05;;;11.50;95.00;;;;;;7343753;19;109473;-90
2022/03/18 10:05:33;;;;;;;7.60;3.00;;;11.60;95.20;;;;;;7345697;19;109394;-92
2022/03/18 10:08:00;;;;;;;9.10;3.08;;;11.70;94.60;;;;;;7344310;19;109275;-93
2022/03/18 10:10:28;;;;;;;8.93;3.13;;;11.70;93.40;;;;;;7345603;19;108436;-95
2022/03/18 10:13:01;;;;;;;9.75;3.03;;;11.70;93.60;;;;;;7353089;19;108128;-93
2022/03/18 10:15:30;;;;;;;6.65;3.45;;;11.90;93.60;;;;;;7348879;19;108709;-93
2022/03/18 10:17:58;;;;;;;12.38;2.72;;;11.80;93.10;;;;;;7351323;19;108449;-91
2022/03/18 10:20:38;;;;;;;11.68;3.13;;;12.00;94.00;;;;;;7347998;19;109184;-91
2022/03/18 10:23:19;;;;;;;10.30;3.30;;;12.20;93.80;;;;;;7348550;19;108324;-92
2022/03/18 10:25:52;;;;;;;8.75;2.67;;;12.40;94.00;;;;;;7349914;19;109422;-91
2022/03/18 10:28:36;;;;;;;7.00;2.75;;;12.50;93.60;;;;;;7347133;19;109291;-91
2022/03/18 10:31:25;;;;;;;6.45;2.78;;;12.70;92.50;;;;;;7349791;19;108501;-91
2022/03/18 10:37:12;;;;;;;6.15;2.20;;;12.80;92.50;;;;;;7357057;19;109113;-91
2022/03/18 10:39:45;;;;;;;8.65;1.95;;;12.80;90.70;;;;;;7351640;19;108470;-93
2022/03/18 10:42:15;;;;;;;11.10;2.80;;;12.70;90.70;;;;;;7349452;19;110655;-91
2022/03/18 10:45:09;;;;;;;8.88;2.88;;;12.70;91.30;;;;;;7348972;19;108621;-95
2022/03/18 10:47:41;;;;;;;9.35;2.88;;;12.70;90.30;;;;;;7347879;19;109426;-95
2022/03/18 10:50:11;;;;;;;7.95;2.22;;;12.80;90.90;;;;;;7348677;19;109989;-93
2022/03/18 10:52:40;;;;;;;7.82;2.83;;;12.90;91.30;;;;;;7349928;19;108883;-93
2022/03/18 10:55:23;;;;;;;5.68;2.30;;;13.10;91.20;;;;;;7348924;19;108785;-94
2022/03/18 10:57:52;;;;;;;5.30;2.28;;;13.10;89.80;;;;;;7351186;19;110574;-93
2022/03/18 11:00:22;;;;;;;7.68;2.70;;;13.10;91.00;;;;;;7357080;19;108253;-91
2022/03/18 11:02:52;;;;;;;9.02;2.40;;;13.20;90.40;;;;;;7352885;19;112884;-93
2022/03/18 11:05:21;;;;;;;6.55;2.42;;;13.20;90.10;;;;;;7354277;19;108372;-95
2022/03/18 11:07:51;;;;;;;5.75;2.28;;;13.20;89.90;;;;;;7350137;19;111641;-95
2022/03/18 11:13:08;;;;;;;16.10;2.30;;;13.20;90.20;;;;;;7355705;19;109097;-95
2022/03/18 11:15:39;;;;;;;5.25;2.40;;;13.40;91.40;;;;;;7356790;19;109532;-91
2022/03/18 11:18:12;;;;;;;8.30;2.28;;;13.50;90.00;;;;;;7352545;19;110855;-93
2022/03/18 11:20:44;;;;;;;7.05;2.30;;;13.50;89.20;;;;;;7355515;19;108902;-94
2022/03/18 11:23:17;;;;;;;14.20;2.58;;;13.50;89.50;;;;;;7350707;19;109180;-94
2022/03/18 11:25:52;;;;;;;8.00;2.30;;;13.70;90.80;;;;;;7354577;19;108217;-92
2022/03/18 11:28:21;;;;;;;8.63;1.95;;;13.90;90.30;;;;;;7355509;19;109357;-95
2022/03/18 11:31:05;;;;;;;7.28;2.20;;;14.00;90.00;;;;;;7350748;19;109565;-94
2022/03/18 11:33:36;;;;;;;9.57;2.65;;;14.10;88.30;;;;;;7358344;19;108395;-96
2022/03/18 11:36:06;;;;;;;8.00;2.20;;;14.30;89.30;;;;;;7355920;19;109444;-95
2022/03/18 11:38:54;;;;;;;9.88;2.53;;;14.30;87.50;;;;;;7357515;19;110482;-93
2022/03/18 11:41:25;;;;;;;22.15;2.83;;;14.20;86.10;;;;;;7358253;19;109113;-95
2022/03/18 11:43:54;;;;;;;9.70;2.22;;;14.30;88.60;;;;;;7360833;19;110268;-95
2022/03/18 11:46:27;;;;;;;7.25;2.08;;;14.50;88.60;;;;;;7352686;19;108204;-94
2022/03/18 11:49:06;;;;;;;5.03;2.00;;;14.60;87.00;;;;;;7352652;19;109264;-94
2022/03/18 11:51:40;;;;;;;13.18;2.67;;;14.60;83.60;;;;;;7359329;19;110675;-94
2022/03/18 11:54:24;;;;;;;177.20;12.85;;;14.90;83.30;;;;;;7356262;19;108080;-96
2022/03/18 11:56:56;;;;;;;5.30;2.40;;;15.30;84.80;;;;;;7343222;19;111332;-93
2022/03/18 11:59:29;;;;;;;7.75;2.08;;;15.40;80.50;;;;;;7346584;19;110593;-91
2022/03/18 12:01:56;;;;;;;7.57;1.33;;;15.60;81.20;;;;;;7342662;19;108520;-90
2022/03/18 12:04:33;;;;;;;13.50;1.95;;;15.80;79.70;;;;;;7346108;19;110553;-90
2022/03/18 12:07:18;;;;;;;7.57;1.92;;;15.40;78.40;;;;;;7350067;19;110258;-90
2022/03/18 12:09:55;;;;;;;14.52;1.85;;;15.20;80.10;;;;;;7344272;19;110046;-91
2022/03/18 12:12:22;;;;;;;;;;;15.90;77.40;;;;;;7347039;19;109416;-89
2022/03/18 12:14:51;;;;;;;5.37;2.03;;;15.80;79.30;;;;;;7348482;19;108588;-92
2022/03/18 12:17:19;;;;;;;9.95;2.35;;;15.70;79.60;;;;;;7344710;19;108785;-91
2022/03/18 12:19:56;;;;;;;5.05;2.25;;;15.70;80.80;;;;;;7344895;19;108795;-92
2022/03/18 12:22:25;;;;;;;6.10;2.15;;;15.90;79.10;;;;;;7343613;19;108399;-91
2022/03/18 12:24:54;;;;;;;6.32;2.20;;;15.70;78.70;;;;;;7345585;19;111591;-89
2022/03/18 12:27:28;;;;;;;12.75;2.30;;;15.70;78.80;;;;;;7344085;19;110343;-89
2022/03/18 12:29:59;;;;;;;14.00;1.90;;;16.30;79.90;;;;;;7344851;19;108530;-88
2022/03/18 12:32:33;;;;;;;9.80;2.28;;;16.90;75.60;;;;;;7339806;19;113035;-88
2022/03/18 12:35:03;;;;;;;6.40;1.60;;;16.90;75.60;;;;;;7338453;19;108392;-88
2022/03/18 12:37:34;;;;;;;17.58;2.13;;;17.10;75.20;;;;;;7340950;19;109550;-89
2022/03/18 12:40:02;;;;;;;8.32;1.27;;;17.20;74.70;;;;;;7341028;19;110274;-86
2022/03/18 12:42:29;;;;;;;12.35;2.38;;;17.20;73.90;;;;;;7338044;19;108994;-87
2022/03/18 12:44:59;;;;;;;5.70;2.03;;;17.20;73.90;;;;;;7339425;19;109246;-87
2022/03/18 12:47:30;;;;;;;7.05;2.17;;;17.20;74.30;;;;;;7338234;19;110228;-87
2022/03/18 12:50:00;;;;;;;4.07;1.75;;;16.90;77.00;;;;;;7341053;19;109496;-87
2022/03/18 12:52:27;;;;;;;8.68;2.30;;;17.30;73.00;;;;;;7344364;19;108646;-88
2022/03/18 12:55:22;;;;;;;7.53;2.13;;;17.20;72.90;;;;;;7339636;19;108804;-87
2022/03/18 12:57:50;;;;;;;6.22;2.55;;;17.10;74.40;;;;;;7339756;19;109626;-88
2022/03/18 13:00:17;;;;;;;10.70;2.88;;;17.10;73.30;;;;;;7341412;19;110276;-87
2022/03/18 13:03:09;;;;;;;5.90;2.50;;;16.80;74.10;;;;;;7338931;19;108172;-88
2022/03/18 13:05:36;;;;;;;12.10;3.03;;;16.60;74.40;;;;;;7339373;19;108632;-87